Time;durP1;ratioP1;P1;durP2;ratioP2;P2;SDS_P1;SDS_P2;PMS_P1;PMS_P2;Temp;Humidity;BMP_temperature;BMP_pressure;BME280_temperature;BME280_humidity;BME280_pressure;Samples;Min_cycle;Max_cycle;Signal;HPM_P1;HPM_P2
2023/12/11 00:01:04;;;;;;;42.88;5.18;;;;;;;-146.27;86.00;32325.25;5100835;28;20426;-68
2023/12/11 00:03:29;;;;;;;48.83;6.47;;;;;;;-146.27;86.48;32434.34;5091719;28;20039;-67
2023/12/11 00:05:54;;;;;;;44.42;5.95;;;;;;;-146.27;87.00;32458.13;5101320;28;20055;-67
2023/12/11 00:08:20;;;;;;;44.45;6.00;;;;;;;-146.27;86.21;32388.72;5097682;28;20088;-67
2023/12/11 00:10:45;;;;;;;49.08;6.35;;;;;;;-146.27;85.12;32224.06;5101674;28;20119;-67
2023/12/11 00:13:11;;;;;;;49.85;7.75;;;;;;;-146.27;85.83;32275.66;5100964;28;20024;-68
2023/12/11 00:15:37;;;;;;;47.47;6.38;;;;;;;-146.27;85.72;32239.94;5097500;28;20028;-67
2023/12/11 00:18:02;;;;;;;40.95;5.82;;;;;;;-146.27;85.36;32265.72;5095402;28;20051;-67
2023/12/11 00:20:28;;;;;;;49.20;7.13;;;;;;;-146.27;85.52;32243.91;5090703;28;20362;-67
2023/12/11 00:22:54;;;;;;;55.67;7.88;;;;;;;-146.27;86.05;32339.13;5076521;28;20501;-68
2023/12/11 00:25:19;;;;;;;40.72;6.60;;;;;;;-146.27;85.02;32295.47;5093073;28;20094;-67
2023/12/11 00:27:45;;;;;;;46.53;7.45;;;;;;;-146.27;85.40;32279.63;5094835;28;20065;-67
2023/12/11 00:30:11;;;;;;;54.65;7.30;;;;;;;-146.27;85.30;32319.28;5092815;28;20430;-67
2023/12/11 00:32:36;;;;;;;53.65;6.78;;;;;;;-146.27;85.40;32325.25;5103576;28;20476;-67
2023/12/11 00:35:02;;;;;;;47.05;7.53;;;;;;;-146.27;85.50;32299.44;5097597;28;20042;-67
2023/12/11 00:37:27;;;;;;;42.50;4.93;;;;;;;-146.27;84.72;32267.72;5091767;28;20027;-67
2023/12/11 00:39:53;;;;;;;60.33;6.40;;;;;;;-146.27;85.05;32323.25;5098707;28;20141;-68
2023/12/11 00:42:18;;;;;;;45.38;6.45;;;;;;;-146.27;84.07;32196.31;5099716;28;20161;-68
2023/12/11 00:44:44;;;;;;;57.50;5.65;;;;;;;-146.27;83.50;32105.06;5096505;28;20050;-67
2023/12/11 00:47:10;;;;;;;49.38;6.13;;;;;;;-146.27;85.37;32319.28;5088636;28;20032;-67
2023/12/11 00:49:35;;;;;;;41.80;6.07;;;;;;;-146.27;84.35;32212.16;5089813;28;20030;-71
2023/12/11 00:52:01;;;;;;;45.10;6.18;;;;;;;-146.27;84.01;32182.41;5096061;28;20031;-66
2023/12/11 00:54:26;;;;;;;41.40;6.50;;;;;;;-146.27;83.61;32160.59;5102374;28;20032;-67
2023/12/11 00:56:52;;;;;;;46.38;7.20;;;;;;;-146.27;83.32;32114.97;5104407;28;20456;-67
2023/12/11 00:59:17;;;;;;;44.33;7.43;;;;;;;-146.27;83.61;32053.50;5100479;28;20464;-66
2023/12/11 01:01:42;;;;;;;49.28;6.65;;;;;;;-146.27;84.48;32182.41;5093791;28;20511;-67
2023/12/11 01:04:08;;;;;;;46.53;7.38;;;;;;;-146.27;83.62;32077.28;5099675;28;20027;-68
2023/12/11 01:06:34;;;;;;;48.78;7.22;;;;;;;-146.27;84.60;32228.03;5092829;28;20032;-67
2023/12/11 01:08:59;;;;;;;47.53;6.65;;;;;;;-146.27;84.73;32228.03;5108043;28;20046;-68
2023/12/11 01:11:25;;;;;;;48.92;6.38;;;;;;;-146.27;84.83;32202.25;5089580;28;20032;-67
2023/12/11 01:13:50;;;;;;;46.78;5.20;;;;;;;-146.27;84.30;32128.88;5090469;28;20036;-66
2023/12/11 01:16:15;;;;;;;49.90;5.78;;;;;;;-146.27;84.75;32196.31;5102800;28;20518;-66
2023/12/11 01:18:42;;;;;;;49.20;7.15;;;;;;;-146.27;85.24;32216.13;5100373;28;20485;-67
2023/12/11 01:21:08;;;;;;;42.13;6.53;;;;;;;-146.27;85.38;32289.53;5076985;28;20118;-66
2023/12/11 01:23:33;;;;;;;62.95;6.68;;;;;;;-146.27;85.15;32257.78;5108373;28;20102;-67
2023/12/11 01:25:58;;;;;;;55.45;7.00;;;;;;;-146.27;85.52;32293.50;5078902;28;20375;-68
2023/12/11 01:28:24;;;;;;;40.15;6.18;;;;;;;-146.27;84.89;32235.97;5102628;28;20027;-67
2023/12/11 01:30:49;;;;;;;45.72;5.68;;;;;;;-146.27;84.51;32247.88;5101917;28;20039;-67
2023/12/11 01:33:15;;;;;;;45.70;5.75;;;;;;;-146.27;84.04;32176.47;5090279;28;20039;-67
2023/12/11 01:35:40;;;;;;;42.72;6.35;;;;;;;-146.27;85.14;32378.78;5103370;28;20487;-66
2023/12/11 01:38:06;;;;;;;56.38;6.15;;;;;;;-146.27;83.91;32226.06;5099082;28;20020;-66
2023/12/11 01:40:31;;;;;;;46.63;5.97;;;;;;;-146.27;83.82;32232.00;5091358;28;20041;-66
2023/12/11 01:43:19;;;;;;;44.83;6.28;;;;;;;-146.27;83.44;32190.34;5105331;28;20031;-67
2023/12/11 01:46:11;;;;;;;48.85;7.88;;;;;;;-146.27;83.58;32228.03;5102312;28;20433;-66
2023/12/11 01:48:36;;;;;;;46.58;5.05;;;;;;;-146.27;84.87;32275.66;5098050;28;20030;-68
2023/12/11 01:51:03;;;;;;;46.00;6.65;;;;;;;-146.27;86.78;32402.59;5097512;28;20376;-69
2023/12/11 01:53:29;;;;;;;49.33;7.28;;;;;;;-146.27;87.97;32438.31;5095281;28;20480;-68
2023/12/11 01:55:55;;;;;;;40.85;5.47;;;;;;;-146.27;88.70;32410.53;5105144;28;20051;-68
2023/12/11 01:58:21;;;;;;;50.40;5.65;;;;;;;-146.27;87.09;32319.28;5074128;28;20239;-68
2023/12/11 02:00:47;;;;;;;37.30;7.00;;;;;;;-146.27;89.56;32604.94;5095982;28;20046;-67
2023/12/11 02:03:12;;;;;;;45.92;4.88;;;;;;;-146.27;88.42;32406.56;5099762;28;20031;-67
2023/12/11 02:05:38;;;;;;;52.90;5.18;;;;;;;-146.27;88.30;32402.59;5095314;28;20044;-66
2023/12/11 02:08:04;;;;;;;51.65;5.60;;;;;;;-146.27;87.37;32372.84;5103540;28;20038;-67
2023/12/11 02:10:29;;;;;;;55.35;6.43;;;;;;;-146.27;87.16;32394.66;5097218;28;20012;-66
2023/12/11 02:12:55;;;;;;;42.72;6.28;;;;;;;-146.27;87.84;32438.31;5107849;28;20067;-67
2023/12/11 02:15:42;;;;;;;42.42;5.63;;;;;;;-146.27;86.48;32366.91;5109193;28;20031;-67
2023/12/11 02:18:09;;;;;;;49.60;6.25;;;;;;;-146.27;86.43;32370.84;5092403;28;20545;-68
2023/12/11 02:20:35;;;;;;;32.83;4.88;;;;;;;-146.27;86.02;32424.41;5071301;28;20024;-68
2023/12/11 02:23:05;;;;;;;49.55;5.85;;;;;;;-146.27;85.59;32339.13;5090955;28;20446;-68
2023/12/11 02:25:33;;;;;;;38.90;4.63;;;;;;;-146.27;85.29;32315.31;5105327;28;20062;-67
2023/12/11 02:27:59;;;;;;;38.45;4.97;;;;;;;-146.27;84.48;32257.78;5096392;28;20111;-66
2023/12/11 02:30:24;;;;;;;50.40;6.72;;;;;;;-146.27;84.82;32293.50;5099624;28;20123;-66
2023/12/11 02:32:53;;;;;;;35.45;5.30;;;;;;;-146.27;84.23;32319.28;5100407;28;20031;-66
2023/12/11 02:35:18;;;;;;;50.53;6.60;;;;;;;-146.27;84.05;32261.75;5100006;28;20027;-68
2023/12/11 02:37:44;;;;;;;35.40;6.97;;;;;;;-146.27;84.11;32339.13;5104674;28;20024;-68
2023/12/11 02:40:09;;;;;;;40.67;6.57;;;;;;;-146.27;82.95;32277.63;5107617;28;20372;-69
2023/12/11 02:42:35;;;;;;;46.28;5.22;;;;;;;-146.27;82.42;32218.13;5092678;28;20024;-67
2023/12/11 02:45:00;;;;;;;47.63;6.63;;;;;;;-146.27;82.81;32291.50;5108905;28;20022;-67
2023/12/11 02:47:26;;;;;;;40.17;5.40;;;;;;;-146.27;81.93;32204.25;5109753;28;20027;-67
2023/12/11 02:49:51;;;;;;;47.45;6.55;;;;;;;-146.27;81.47;32251.84;5101723;28;20030;-68
2023/12/11 02:52:16;;;;;;;41.95;5.00;;;;;;;-146.27;81.91;32281.59;5099017;28;20023;-67
2023/12/11 02:54:42;;;;;;;41.10;5.70;;;;;;;-146.27;80.99;32178.44;5107119;28;20026;-67
2023/12/11 02:57:07;;;;;;;35.88;4.82;;;;;;;-146.27;80.73;32263.75;5086810;28;20020;-67
2023/12/11 02:59:33;;;;;;;47.72;6.22;;;;;;;-146.27;80.17;32105.06;5106735;28;20024;-67
2023/12/11 03:01:58;;;;;;;40.28;7.80;;;;;;;-146.27;80.40;32164.56;5093727;28;20443;-67
2023/12/11 03:04:23;;;;;;;33.38;4.13;;;;;;;-146.27;80.48;32168.53;5082094;28;20110;-67
2023/12/11 03:06:51;;;;;;;33.47;4.45;;;;;;;-146.27;79.62;32130.84;5095253;28;20028;-67
2023/12/11 03:09:16;;;;;;;42.55;5.47;;;;;;;-146.27;79.98;32049.53;5105148;28;20485;-67
2023/12/11 03:11:42;;;;;;;49.15;5.22;;;;;;;-146.27;80.24;32101.09;5111524;28;20116;-68
2023/12/11 03:14:07;;;;;;;36.28;7.47;;;;;;;-146.27;79.99;32128.88;5092816;28;20421;-67
2023/12/11 03:16:32;;;;;;;45.85;7.88;;;;;;;-146.27;80.49;32158.63;5106226;28;20111;-68
2023/12/11 03:18:58;;;;;;;40.55;5.35;;;;;;;-146.27;80.59;32188.38;5093224;28;20067;-68
2023/12/11 03:21:23;;;;;;;38.42;6.35;;;;;;;-146.27;79.76;32077.28;5098367;28;20024;-66
2023/12/11 03:23:49;;;;;;;26.25;5.35;;;;;;;-146.27;81.51;32243.91;5092149;28;20024;-66
2023/12/11 03:26:14;;;;;;;44.50;6.03;;;;;;;-146.27;83.51;32253.81;5096847;28;20020;-67
2023/12/11 03:28:39;;;;;;;40.92;5.35;;;;;;;-146.27;84.83;32335.16;5109340;28;20118;-68
2023/12/11 03:31:05;;;;;;;46.58;7.50;;;;;;;-146.27;84.23;32232.00;5103252;28;20047;-68
2023/12/11 03:33:30;;;;;;;52.33;7.88;;;;;;;-146.27;85.28;32329.19;5096288;28;20028;-69
2023/12/11 03:35:56;;;;;;;45.42;6.57;;;;;;;-146.27;85.68;32341.09;5097754;28;20360;-66
2023/12/11 03:38:21;;;;;;;63.38;6.22;;;;;;;-146.27;87.11;32378.78;5107595;28;20024;-67
2023/12/11 03:40:47;;;;;;;48.63;7.00;;;;;;;-146.27;87.75;32366.91;5107322;28;20024;-68
2023/12/11 03:43:12;;;;;;;53.25;6.45;;;;;;;-146.27;87.35;32378.78;5094078;28;20161;-67
2023/12/11 03:45:38;;;;;;;51.50;6.47;;;;;;;-146.27;87.61;32466.06;5107161;28;20073;-65
2023/12/11 03:48:03;;;;;;;37.88;5.22;;;;;;;-146.27;88.91;32581.13;5091484;28;20016;-68
2023/12/11 03:50:29;;;;;;;41.53;5.85;;;;;;;-146.27;87.67;32414.50;5073567;28;20411;-68
2023/12/11 03:52:54;;;;;;;45.17;4.95;;;;;;;-146.27;87.86;32470.03;5099377;28;20080;-67
2023/12/11 03:55:19;;;;;;;45.92;5.85;;;;;;;-146.27;88.02;32517.66;5102368;28;20016;-67
2023/12/11 03:57:45;;;;;;;37.42;6.85;;;;;;;-146.27;87.51;32531.53;5108472;28;20031;-66
2023/12/11 04:00:11;;;;;;;50.70;5.45;;;;;;;-146.27;87.14;32481.94;5106579;28;20067;-66
2023/12/11 04:02:36;;;;;;;32.88;5.22;;;;;;;-146.27;86.91;32505.75;5106370;28;20066;-66
2023/12/11 04:05:02;;;;;;;46.63;5.55;;;;;;;-146.27;86.20;32489.88;5111713;28;20023;-66
2023/12/11 04:07:28;;;;;;;36.72;4.90;;;;;;;-146.27;85.32;32386.72;5104846;28;20028;-68
2023/12/11 04:09:53;;;;;;;54.58;6.47;;;;;;;-146.27;85.13;32380.78;5092424;28;20057;-67
2023/12/11 04:12:18;;;;;;;36.70;5.57;;;;;;;-146.27;84.02;32291.50;5105640;28;20023;-67
2023/12/11 04:14:44;;;;;;;36.70;6.65;;;;;;;-146.27;84.12;32307.38;5094258;28;20059;-67
2023/12/11 04:17:09;;;;;;;38.90;4.70;;;;;;;-146.27;84.04;32347.06;5092957;28;20035;-68
2023/12/11 04:19:34;;;;;;;46.03;5.68;;;;;;;-146.27;83.33;32261.75;5096319;28;20027;-68
2023/12/11 04:22:00;;;;;;;34.30;5.32;;;;;;;-146.27;82.89;32339.13;5106274;28;20495;-66
2023/12/11 04:24:25;;;;;;;43.38;5.63;;;;;;;-146.27;82.63;32351.03;5103934;28;20039;-66
2023/12/11 04:26:51;;;;;;;42.85;5.03;;;;;;;-146.27;81.98;32289.53;5090088;28;20434;-66
2023/12/11 04:29:16;;;;;;;36.55;4.88;;;;;;;-146.27;81.08;32255.81;5107243;28;20071;-67
2023/12/11 04:31:41;;;;;;;44.85;5.60;;;;;;;-146.27;81.98;32360.94;5099437;28;20024;-67
2023/12/11 04:34:07;;;;;;;31.98;6.03;;;;;;;-146.27;81.94;32341.09;5095759;28;20023;-67
2023/12/11 04:36:32;;;;;;;42.35;6.75;;;;;;;-146.27;81.48;32374.81;5103134;28;20028;-67
2023/12/11 04:38:57;;;;;;;35.45;5.22;;;;;;;-146.27;81.85;32382.75;5106017;28;20118;-67
2023/12/11 04:41:23;;;;;;;41.20;5.72;;;;;;;-146.27;81.75;32349.03;5103931;28;20020;-66
2023/12/11 04:43:48;;;;;;;33.90;5.18;;;;;;;-146.27;81.72;32303.41;5089487;28;20019;-68
2023/12/11 04:46:14;;;;;;;54.85;5.90;;;;;;;-146.27;82.42;32283.59;5092455;28;20028;-67
2023/12/11 04:48:39;;;;;;;32.17;4.80;;;;;;;-146.27;82.66;32331.19;5102383;28;20114;-67
2023/12/11 04:51:05;;;;;;;41.63;5.68;;;;;;;-146.27;82.83;32279.63;5101793;28;20034;-67
2023/12/11 04:53:30;;;;;;;37.50;5.85;;;;;;;-146.27;83.27;32325.25;5103244;28;20048;-67
2023/12/11 04:55:56;;;;;;;34.33;7.00;;;;;;;-146.27;83.16;32295.47;5096436;28;20039;-68
2023/12/11 04:58:21;;;;;;;43.53;5.65;;;;;;;-146.27;82.79;32335.16;5107407;28;20035;-68
2023/12/11 05:00:47;;;;;;;35.85;5.72;;;;;;;-146.27;85.15;32436.31;5098470;28;20031;-67
2023/12/11 05:03:12;;;;;;;41.75;5.50;;;;;;;-146.27;84.01;32349.03;5095256;28;20530;-66
2023/12/11 05:05:37;;;;;;;45.25;5.30;;;;;;;-146.27;83.39;32394.66;5104438;28;20503;-67
2023/12/11 05:08:03;;;;;;;27.17;4.05;;;;;;;-146.27;82.94;32398.63;5099455;28;20138;-68
2023/12/11 05:10:28;;;;;;;27.80;3.90;;;;;;;-146.27;82.36;32366.91;5099170;28;20028;-67
2023/12/11 05:12:54;;;;;;;36.25;4.40;;;;;;;-146.27;81.59;32347.06;5101014;28;20026;-67
2023/12/11 05:15:19;;;;;;;27.77;3.50;;;;;;;-146.27;81.61;32442.28;5100793;28;20027;-67
2023/12/11 05:17:45;;;;;;;25.55;4.10;;;;;;;-146.27;81.06;32293.50;5072625;28;20034;-67
2023/12/11 05:20:12;;;;;;;23.75;3.72;;;;;;;-146.27;80.54;32283.59;5090147;28;20104;-66
2023/12/11 05:22:38;;;;;;;27.85;3.92;;;;;;;-146.27;80.71;32351.03;5103659;28;20549;-68
2023/12/11 05:25:04;;;;;;;31.65;4.32;;;;;;;-146.27;79.99;32299.44;5101138;28;20030;-67
2023/12/11 05:27:29;;;;;;;26.67;3.65;;;;;;;-146.27;79.82;32271.69;5089430;28;20038;-68
2023/12/11 05:29:55;;;;;;;18.00;3.08;;;;;;;-146.27;81.50;32489.88;5096601;28;20059;-66
2023/12/11 05:32:20;;;;;;;20.00;3.33;;;;;;;-146.27;81.13;32370.84;5096863;28;20032;-67
2023/12/11 05:34:45;;;;;;;28.25;3.95;;;;;;;-146.27;82.43;32418.47;5100883;28;20357;-68
2023/12/11 05:37:11;;;;;;;23.88;4.07;;;;;;;-146.27;82.80;32414.50;5097089;28;20025;-68
2023/12/11 05:39:36;;;;;;;25.88;3.15;;;;;;;-146.27;84.56;32545.44;5096528;28;20035;-67
2023/12/11 05:42:02;;;;;;;18.00;3.80;;;;;;;-146.27;85.25;32491.88;5093077;28;20057;-67
2023/12/11 05:44:28;;;;;;;29.30;4.13;;;;;;;-146.27;85.74;32545.44;5104701;28;20530;-66
2023/12/11 05:46:53;;;;;;;32.88;3.92;;;;;;;-146.27;86.24;32610.88;5089104;28;20032;-67
2023/12/11 05:49:20;;;;;;;24.30;3.47;;;;;;;-146.27;86.24;32577.16;5105761;28;20019;-67
2023/12/11 05:51:45;;;;;;;33.88;3.55;;;;;;;-146.27;86.13;32589.06;5096218;28;20400;-67
2023/12/11 05:54:10;;;;;;;25.05;3.22;;;;;;;-146.27;85.70;32616.84;5092009;28;20031;-67
2023/12/11 05:56:36;;;;;;;22.08;3.13;;;;;;;-146.27;84.80;32577.16;5094760;28;20028;-67
2023/12/11 05:59:02;;;;;;;23.83;5.80;;;;;;;-146.27;83.98;32624.78;5089622;28;20032;-66
2023/12/11 06:01:27;;;;;;;31.98;4.13;;;;;;;-146.27;82.65;32444.25;5100751;28;20028;-67
2023/12/11 06:03:53;;;;;;;21.35;2.25;;;;;;;-146.27;82.91;32561.28;5099586;28;20156;-68
2023/12/11 06:06:18;;;;;;;23.27;3.00;;;;;;;-146.27;81.74;32355.00;5103780;28;20371;-67
2023/12/11 06:08:44;;;;;;;21.88;3.13;;;;;;;-146.27;82.49;32489.88;5102742;28;20096;-67
2023/12/11 06:11:12;;;;;;;27.88;2.70;;;;;;;-146.27;82.12;32414.50;5106113;28;20019;-67
2023/12/11 06:13:38;;;;;;;22.27;3.22;;;;;;;-146.27;84.83;32537.50;5095387;28;20024;-67
2023/12/11 06:16:04;;;;;;;20.27;3.42;;;;;;;-146.27;86.67;32624.78;5104256;28;20487;-67
2023/12/11 06:18:29;;;;;;;25.83;2.90;;;;;;;-146.27;87.70;32644.63;5092887;28;20055;-68
2023/12/11 06:20:58;;;;;;;21.92;2.88;;;;;;;-146.27;88.67;32684.28;5099697;28;20036;-67
2023/12/11 06:23:23;;;;;;;26.00;3.90;;;;;;;-146.27;88.75;32664.44;5097343;28;20035;-67
2023/12/11 06:25:48;;;;;;;19.83;3.10;;;;;;;-146.27;89.32;32735.88;5103436;28;20029;-67
2023/12/11 06:28:14;;;;;;;19.02;3.45;;;;;;;-146.27;89.40;32674.38;5102974;28;20027;-68
2023/12/11 06:30:39;;;;;;;16.52;2.67;;;;;;;-146.27;89.46;32672.38;5101791;28;20047;-67
2023/12/11 06:33:05;;;;;;;28.00;3.72;;;;;;;-146.27;89.82;32698.19;5093915;28;20023;-66
2023/12/11 06:35:30;;;;;;;22.60;3.03;;;;;;;-146.27;89.89;32688.25;5091006;28;20114;-69
2023/12/11 06:37:55;;;;;;;24.42;3.50;;;;;;;-146.27;89.49;32743.81;5093970;28;20031;-68
2023/12/11 06:40:21;;;;;;;19.48;2.60;;;;;;;-146.27;89.45;32716.03;5097573;28;20024;-68
2023/12/11 06:42:46;;;;;;;19.08;2.67;;;;;;;-146.27;89.72;32767.59;5099996;28;20035;-68
2023/12/11 06:45:12;;;;;;;27.73;3.20;;;;;;;-146.27;89.16;32716.03;5112108;28;20030;-66
2023/12/11 06:47:37;;;;;;;29.15;4.10;;;;;;;-146.27;88.23;32608.91;5100248;28;20022;-69
2023/12/11 06:50:03;;;;;;;19.77;3.17;;;;;;;-146.27;87.92;32610.88;5095708;28;20108;-69
2023/12/11 06:52:29;;;;;;;30.75;3.58;;;;;;;-146.27;88.05;32632.72;5099922;28;20020;-68
2023/12/11 06:54:55;;;;;;;21.20;3.53;;;;;;;-146.27;87.25;32501.78;5079288;28;20724;-69
2023/12/11 06:57:20;;;;;;;15.23;2.67;;;;;;;-146.27;87.19;32557.31;5104278;28;20028;-68
2023/12/11 06:59:46;;;;;;;18.15;1.92;;;;;;;-146.27;87.75;32668.41;5092692;28;20093;-69
2023/12/11 07:02:11;;;;;;;21.98;3.08;;;;;;;-146.27;87.20;32620.81;5100108;28;20066;-68
2023/12/11 07:04:40;;;;;;;20.05;3.47;;;;;;;-146.27;87.54;32620.81;5101641;28;20502;-65
2023/12/11 07:07:06;;;;;;;19.63;2.40;;;;;;;-146.27;88.64;32656.50;5094662;28;20078;-69
2023/12/11 07:09:32;;;;;;;24.23;3.38;;;;;;;-146.27;89.09;32698.19;5096903;28;20032;-68
2023/12/11 07:11:57;;;;;;;13.57;2.75;;;;;;;-146.27;89.72;32789.44;5094606;28;20034;-68
2023/12/11 07:14:24;;;;;;;12.45;1.92;;;;;;;-146.27;89.83;32755.69;5096384;28;20028;-67
2023/12/11 07:16:50;;;;;;;17.77;2.60;;;;;;;-146.27;90.04;32775.53;5097043;28;20052;-67
2023/12/11 07:19:16;;;;;;;12.57;1.75;;;;;;;-146.27;90.45;32723.97;5098151;28;20451;-69
2023/12/11 07:21:43;;;;;;;9.15;1.75;;;;;;;-146.27;91.71;32854.91;5097358;28;20055;-70
2023/12/11 07:24:08;;;;;;;17.65;2.33;;;;;;;-146.27;91.74;32803.31;5096692;28;20047;-67
2023/12/11 07:26:33;;;;;;;16.75;2.25;;;;;;;-146.27;91.82;32803.31;5096216;28;20020;-68
2023/12/11 07:29:00;;;;;;;29.08;3.75;;;;;;;-146.27;91.66;32747.78;5099086;28;20642;-69
2023/12/11 07:31:25;;;;;;;24.05;2.72;;;;;;;-146.27;91.76;32769.59;5099542;28;20093;-69
2023/12/11 07:33:50;;;;;;;21.83;2.90;;;;;;;-146.27;91.98;32795.38;5099526;27;20020;-69
2023/12/11 07:36:17;;;;;;;18.77;3.13;;;;;;;-146.27;92.92;32835.06;5098711;28;20051;-69
2023/12/11 07:38:42;;;;;;;17.25;2.17;;;;;;;-146.27;92.23;32825.13;5092125;28;20039;-69
2023/12/11 07:41:08;;;;;;;21.70;3.40;;;;;;;-146.27;92.50;32815.22;5095754;28;20548;-70
2023/12/11 07:43:33;;;;;;;20.73;2.78;;;;;;;-146.27;93.04;32854.91;5091991;28;20035;-68
2023/12/11 07:45:59;;;;;;;15.85;2.47;;;;;;;-146.27;93.06;32852.91;5092075;28;20027;-69
2023/12/11 07:48:26;;;;;;;15.43;2.85;;;;;;;-146.27;92.61;32819.19;5092027;28;20024;-68
2023/12/11 07:50:51;;;;;;;22.33;2.40;;;;;;;-146.27;92.37;32729.91;5091697;28;20643;-71
2023/12/11 07:53:16;;;;;;;17.95;2.35;;;;;;;-146.27;92.96;32827.13;5091868;28;20035;-69
2023/12/11 07:55:42;;;;;;;11.07;1.90;;;;;;;-146.27;92.92;32779.50;5091106;28;20024;-68
2023/12/11 07:58:07;;;;;;;19.33;4.35;;;;;;;-146.27;92.44;32797.38;5090312;28;20566;-68
2023/12/11 08:00:33;;;;;;;29.27;4.05;;;;;;;-146.27;92.01;32813.25;5091649;28;20028;-68
2023/12/11 08:02:58;;;;;;;20.10;4.15;;;;;;;-146.27;91.48;32787.44;5093589;28;20149;-68
2023/12/11 08:05:23;;;;;;;20.83;4.28;;;;;;;-146.27;91.50;32829.09;5091299;28;20023;-67
2023/12/11 08:07:49;;;;;;;27.90;3.33;;;;;;;-146.27;90.91;32815.22;5091404;28;20035;-68
2023/12/11 08:10:16;;;;;;;10.05;2.97;;;;;;;-146.27;90.38;32882.66;5091212;28;20023;-68
2023/12/11 08:12:41;;;;;;;19.77;2.78;;;;;;;-146.27;89.80;32841.00;5091437;28;20071;-68
2023/12/11 08:15:07;;;;;;;16.85;2.78;;;;;;;-146.27;88.78;32795.38;5091240;28;20058;-68
2023/12/11 08:17:33;;;;;;;16.70;4.93;;;;;;;-146.27;88.46;32839.03;5091546;28;20024;-68
2023/12/11 08:19:58;;;;;;;22.30;3.75;;;;;;;-146.27;87.62;32839.03;5090893;28;20035;-69
2023/12/11 08:22:24;;;;;;;13.68;2.72;;;;;;;-146.27;87.56;32827.13;5091042;28;20028;-69
2023/12/11 08:24:49;;;;;;;18.42;2.15;;;;;;;-146.27;87.10;32791.41;5090990;28;20028;-69
2023/12/11 08:27:15;;;;;;;15.57;2.83;;;;;;;-146.27;85.83;32670.41;5091059;28;20511;-68
2023/12/11 08:29:40;;;;;;;25.20;3.78;;;;;;;-146.27;85.94;32692.22;5089759;28;20059;-69
2023/12/11 08:32:06;;;;;;;12.45;2.92;;;;;;;-146.27;85.15;32739.84;5091262;28;20484;-68
2023/12/11 08:34:31;;;;;;;15.32;1.88;;;;;;;-146.27;84.91;32698.19;5090705;28;20505;-68
2023/12/11 08:36:57;;;;;;;18.00;3.30;;;;;;;-146.27;85.36;32783.47;5096469;28;20059;-69
2023/12/11 08:39:23;;;;;;;11.20;2.67;;;;;;;-146.27;84.37;32718.00;5111584;28;20376;-67
2023/12/11 08:41:49;;;;;;;17.23;2.67;;;;;;;-146.27;84.58;32787.44;5109722;28;20080;-67
2023/12/11 08:44:15;;;;;;;12.80;2.22;;;;;;;-146.27;83.78;32721.97;5109310;28;20031;-66
2023/12/11 08:46:41;;;;;;;14.88;2.53;;;;;;;-146.27;83.88;32729.91;5111186;28;20494;-68
2023/12/11 08:49:07;;;;;;;9.95;2.00;;;;;;;-146.27;83.77;32739.84;5099268;28;20027;-66
2023/12/11 08:51:33;;;;;;;16.60;2.40;;;;;;;-146.27;82.97;32630.72;5103394;28;20111;-69
2023/12/11 08:53:58;;;;;;;11.93;2.60;;;;;;;-146.27;83.71;32672.38;5109869;28;20043;-68
2023/12/11 08:56:24;;;;;;;11.88;2.75;;;;;;;-146.27;83.45;32700.16;5111084;28;20383;-68
2023/12/11 08:58:50;;;;;;;21.33;3.55;;;;;;;-146.27;83.38;32664.44;5107951;28;20566;-67
2023/12/11 09:01:17;;;;;;;11.48;2.40;;;;;;;-146.27;83.07;32648.56;5099359;28;20024;-68
2023/12/11 09:03:44;;;;;;;12.27;2.83;;;;;;;-146.27;83.66;32702.13;5092005;28;20498;-68
2023/12/11 09:06:10;;;;;;;14.98;2.92;;;;;;;-146.27;83.14;32664.44;5094579;28;20077;-68
2023/12/11 09:08:35;;;;;;;11.68;2.47;;;;;;;-146.27;83.28;32688.25;5107182;28;20058;-69
2023/12/11 09:11:00;;;;;;;15.02;2.90;;;;;;;-146.27;83.59;32704.13;5090583;28;20094;-67
2023/12/11 09:13:26;;;;;;;15.40;2.70;;;;;;;-146.27;83.66;32716.03;5090267;28;20463;-67
2023/12/11 09:15:52;;;;;;;14.38;2.75;;;;;;;-146.27;83.04;32672.38;5091391;28;20034;-67
2023/12/11 09:18:17;;;;;;;17.08;3.05;;;;;;;-146.27;83.54;32708.09;5090283;28;20146;-68
2023/12/11 09:20:43;;;;;;;17.60;2.90;;;;;;;-146.27;83.81;32704.13;5090659;28;20023;-71
2023/12/11 09:23:09;;;;;;;10.35;3.00;;;;;;;-146.27;83.88;32708.09;5090431;28;20387;-67
2023/12/11 09:25:35;;;;;;;11.57;3.00;;;;;;;-146.27;83.71;32640.66;5090740;28;20028;-68
2023/12/11 09:28:00;;;;;;;13.02;2.10;;;;;;;-146.27;83.50;32712.06;5071740;28;20089;-67
2023/12/11 09:30:26;;;;;;;17.85;2.97;;;;;;;-146.27;82.70;32628.75;5089937;28;20036;-67
2023/12/11 09:32:51;;;;;;;15.00;3.40;;;;;;;-146.27;82.93;32712.06;5091664;28;20059;-67
2023/12/11 09:35:17;;;;;;;12.30;2.50;;;;;;;-146.27;82.46;32660.47;5089548;28;20502;-66
2023/12/11 09:37:42;;;;;;;13.70;2.72;;;;;;;-146.27;82.38;32658.50;5091412;28;20119;-68
2023/12/11 09:40:10;;;;;;;12.80;3.05;;;;;;;-146.27;82.21;32676.34;5091894;28;20027;-68
2023/12/11 09:42:43;;;;;;;13.85;2.50;;;;;;;-146.27;81.44;32589.06;5093731;28;20020;-67
2023/12/11 09:45:12;;;;;;;21.92;2.65;;;;;;;-146.27;81.71;32561.28;5094614;28;20035;-67
2023/12/11 09:47:52;;;;;;;18.88;2.60;;;;;;;-146.27;81.34;32604.94;5100446;28;20031;-67
2023/12/11 09:50:18;;;;;;;18.70;3.08;;;;;;;-146.27;80.94;32517.66;5094244;28;20540;-66
2023/12/11 09:52:44;;;;;;;13.48;2.25;;;;;;;-146.27;81.46;32612.88;5093585;28;20032;-67
2023/12/11 09:55:10;;;;;;;15.90;2.75;;;;;;;-146.27;80.89;32579.16;5076223;28;20541;-67
2023/12/11 09:57:38;;;;;;;11.13;1.65;;;;;;;-146.27;81.27;32616.84;5094280;28;20032;-67
2023/12/11 10:00:04;;;;;;;8.25;2.03;;;;;;;-146.27;80.82;32632.72;5102936;28;20020;-68
2023/12/11 10:02:29;;;;;;;10.93;1.73;;;;;;;-146.27;79.80;32589.06;5094131;28;20035;-66
2023/12/11 10:05:06;;;;;;;10.57;2.28;;;;;;;-146.27;80.13;32573.19;5105709;28;20027;-68
2023/12/11 10:07:32;;;;;;;14.75;2.17;;;;;;;-146.27;80.22;32668.41;5105576;28;20043;-68
2023/12/11 10:10:16;;;;;;;9.13;1.95;;;;;;;-146.27;79.72;32692.22;5097813;28;20016;-67
2023/12/11 10:12:42;;;;;;;15.07;2.22;;;;;;;-146.27;79.80;32591.06;5096344;28;20032;-67
2023/12/11 10:15:08;;;;;;;9.57;1.73;;;;;;;-146.27;79.51;32642.63;5113273;28;20132;-67
2023/12/11 10:17:33;;;;;;;10.88;2.00;;;;;;;-146.27;80.15;32686.28;5100444;28;20027;-68
2023/12/11 10:19:59;;;;;;;15.18;2.33;;;;;;;-146.27;80.42;32658.50;5093562;28;20024;-67
2023/12/11 10:22:27;;;;;;;17.40;3.05;;;;;;;-146.27;80.42;32656.50;5099560;28;20034;-67
2023/12/11 10:24:52;;;;;;;13.45;2.55;;;;;;;-146.27;80.16;32593.03;5096965;28;20024;-67
2023/12/11 10:27:22;;;;;;;11.02;2.30;;;;;;;-146.27;80.95;32624.78;5104872;28;20692;-68
2023/12/11 10:29:47;;;;;;;17.60;2.45;;;;;;;-146.27;80.79;32614.84;5092983;28;20047;-68
2023/12/11 10:32:13;;;;;;;7.95;2.30;;;;;;;-146.27;80.86;32612.88;5093152;28;20139;-67
2023/12/11 10:34:50;;;;;;;14.50;3.00;;;;;;;-146.27;80.92;32585.09;5093182;28;20126;-68
2023/12/11 10:37:17;;;;;;;13.05;3.40;;;;;;;-146.27;80.91;32620.81;5092963;28;20086;-67
2023/12/11 10:39:56;;;;;;;11.52;2.55;;;;;;;-146.27;80.56;32644.63;5093444;28;20032;-68
2023/12/11 10:42:22;;;;;;;16.88;2.63;;;;;;;-146.27;80.87;32642.63;5093149;28;20399;-68
2023/12/11 10:44:48;;;;;;;14.48;2.67;;;;;;;-146.27;80.41;32583.13;5093188;28;20020;-68
2023/12/11 10:47:14;;;;;;;10.10;2.30;;;;;;;-146.27;80.08;32608.91;5093147;28;20137;-68
2023/12/11 10:49:40;;;;;;;17.15;2.47;;;;;;;-146.27;79.66;32612.88;5092918;28;20107;-69
2023/12/11 10:52:06;;;;;;;13.73;3.65;;;;;;;-146.27;79.30;32598.97;5092129;28;20020;-66
2023/12/11 10:54:32;;;;;;;15.07;2.67;;;;;;;-146.27;78.53;32577.16;5110996;28;20036;-67
2023/12/11 10:57:01;;;;;;;16.60;2.25;;;;;;;-146.27;78.57;32531.53;5092165;28;20032;-67
2023/12/11 10:59:29;;;;;;;14.18;2.97;;;;;;;-146.27;79.25;32692.22;5092900;28;20519;-68
2023/12/11 11:01:57;;;;;;;5.82;2.10;;;;;;;-146.27;79.06;32650.56;5093052;28;20028;-69
2023/12/11 11:04:24;;;;;;;10.23;2.53;;;;;;;-146.27;78.53;32543.44;5092026;28;20099;-68